Weather reports worldwide

Advertisment
Estaca de Bares, Spain (8004): temperature & dewpoint: 26.06.2020 07:00:00 - 02.07.2020 07:00:00 (CEST)Estaca de Bares, Spain (8004): wind speed & gusts: 26.06.2020 07:00:00 - 02.07.2020 07:00:00 (CEST)Estaca de Bares, Spain (8004): wind direction: 26.06.2020 07:00:00 - 02.07.2020 07:00:00 (CEST)Estaca de Bares, Spain (8004): reduced air pressure: 26.06.2020 07:00:00 - 02.07.2020 07:00:00 (CEST)Estaca de Bares, Spain (8004): sunshine duration: 26.06.2020 07:00:00 - 02.07.2020 07:00:00 (CEST)Estaca de Bares, Spain (8004): precipitation: 26.06.2020 07:00:00 - 02.07.2020 07:00:00 (CEST)
Date & Time tt [°C] td [°C] ff [km/h] ff [kn] fx [km/h] fx [kn] dd ppp [hPa] sd [min] rr [mm]
02.07.2020 07:00:00 - - - - - - - - - -
02.07.2020 06:00:00 15,8 13,7 16 9 22 12 W 1017,2 0 0,0
02.07.2020 05:00:00 15,7 13,2 14 7 23 13 WSW 1017,1 0 0,0
02.07.2020 04:00:00 15,8 13,5 13 7 24 13 WSW 1017,4 0 0,0
02.07.2020 03:00:00 15,3 14,0 19 11 28 15 WSW 1017,4 0 0,0
02.07.2020 02:00:00 16,1 13,8 17 9 26 14 W 1017,5 0 -
02.07.2020 01:00:00 16,3 13,4 16 9 21 11 WSW 1017,6 0 0,0
02.07.2020 00:00:00 16,4 13,2 19 11 24 13 W 1017,5 0 0,0
01.07.2020 23:00:00 16,4 13,7 21 11 29 16 W 1017,0 0 0,0
01.07.2020 22:00:00 16,5 13,5 24 13 36 20 W 1016,5 0 0,0
01.07.2020 21:00:00 16,6 13,6 28 15 40 22 W 1016,3 4 0,0
01.07.2020 20:00:00 16,9 13,9 35 19 43 23 W 1015,9 0 -
01.07.2020 19:00:00 16,6 14,8 37 20 44 24 WNW 1015,8 11 0,0
01.07.2020 18:00:00 17,2 13,4 41 22 48 26 W 1015,8 37 0,0
01.07.2020 17:00:00 17,1 14,9 40 22 49 26 WNW 1015,6 48 0,0
01.07.2020 16:00:00 17,6 14,7 44 24 51 27 W 1015,4 59 0,0
01.07.2020 15:00:00 16,5 13,6 55 30 62 34 W 1014,9 27 0,0
01.07.2020 14:00:00 17,5 14,0 46 25 53 28 W 1014,9 1 -
01.07.2020 13:00:00 16,8 14,2 38 20 45 25 W 1014,7 0 0,0
01.07.2020 12:00:00 17,0 14,4 35 19 55 30 W 1014,3 0 0,0
01.07.2020 11:00:00 15,1 15,1 41 22 52 28 W 1013,9 0 0,0
01.07.2020 10:00:00 15,3 15,3 38 21 43 23 W 1013,4 0 0,0
01.07.2020 09:00:00 15,5 15,5 34 19 49 27 W 1013,0 0 0,0
01.07.2020 08:00:00 15,8 15,8 43 23 49 26 WNW 1012,1 0 -
01.07.2020 07:00:00 17,3 17,3 23 12 29 16 W 1012,2 0 0,0
01.07.2020 06:00:00 17,2 17,2 26 14 32 17 W 1012,0 0 0,0
01.07.2020 05:00:00 18,0 17,1 24 13 34 18 W 1011,9 0 0,0
01.07.2020 04:00:00 17,8 16,6 24 13 40 21 W 1011,9 0 0,0
01.07.2020 03:00:00 17,8 17,0 26 14 32 18 WSW 1012,2 0 0,0
01.07.2020 02:00:00 17,4 17,4 24 13 36 19 W 1012,7 0 -
01.07.2020 01:00:00 17,7 17,7 18 10 24 13 W 1012,9 0 0,0
01.07.2020 00:00:00 17,8 17,8 19 10 27 15 W 1013,2 0 0,0
30.06.2020 23:00:00 19,2 16,8 9 5 11 6 WSW 1012,8 10 0,0
30.06.2020 22:00:00 19,9 16,6 5 3 6 3 SW 1012,8 2 0,0
30.06.2020 21:00:00 20,1 17,1 2 1 9 5 SW 1012,6 0 0,0
30.06.2020 20:00:00 19,8 18,3 7 4 11 6 WSW 1012,4 0 -
30.06.2020 19:00:00 18,3 18,3 11 6 16 9 WNW 1012,8 0 0,0
30.06.2020 18:00:00 19,3 18,5 8 5 15 8 WNW 1013,2 17 0,0
30.06.2020 17:00:00 20,2 17,8 8 5 16 9 WNW 1013,0 60 0,0
30.06.2020 16:00:00 19,2 17,7 10 5 18 10 ENE 1013,3 59 0,0
30.06.2020 15:00:00 19,5 16,9 14 8 19 11 E 1013,6 60 0,0
30.06.2020 14:00:00 20,6 17,6 13 7 18 10 E 1013,6 59 -
30.06.2020 13:00:00 19,3 16,9 13 7 16 8 E 1014,1 60 0,0
30.06.2020 12:00:00 19,7 16,3 5 3 9 5 NNE 1014,4 60 0,0
30.06.2020 11:00:00 17,8 15,3 7 4 10 5 WSW 1014,9 30 0,0
30.06.2020 10:00:00 17,2 15,3 6 4 10 5 W 1015,0 0 0,0
30.06.2020 09:00:00 16,8 14,8 8 4 10 6 W 1014,9 0 0,0
30.06.2020 08:00:00 16,3 14,1 6 3 7 4 W 1014,7 0 -
30.06.2020 07:00:00 16,1 14,2 3 2 7 4 NW 1014,8 0 0,0
30.06.2020 06:00:00 16,3 13,6 3 1 7 4 WSW 1014,9 0 0,0
30.06.2020 05:00:00 16,1 13,4 5 3 8 4 W 1015,4 0 0,0
30.06.2020 04:00:00 17,0 11,7 5 3 7 4 SW 1015,9 0 0,0
30.06.2020 03:00:00 15,7 14,2 4 2 6 4 W 1016,8 0 0,0
30.06.2020 02:00:00 16,1 13,9 7 4 13 7 S 1017,5 0 -
30.06.2020 01:00:00 15,7 13,6 5 3 6 4 SSE 1017,9 0 0,0
30.06.2020 00:00:00 15,9 13,4 2 1 5 3 WSW 1018,4 0 0,0
29.06.2020 23:00:00 16,5 13,5 4 2 12 6 W 1018,3 6 0,0
29.06.2020 22:00:00 17,4 13,9 8 4 13 7 WNW 1018,3 60 0,0
29.06.2020 21:00:00 18,5 13,8 5 3 11 6 W 1018,5 58 0,0
29.06.2020 20:00:00 18,0 13,3 7 4 13 7 NNE 1018,5 60 -
29.06.2020 19:00:00 17,8 13,6 8 5 17 9 NE 1019,0 60 0,0
29.06.2020 18:00:00 18,2 13,5 14 7 18 10 E 1019,2 60 0,0
29.06.2020 17:00:00 18,8 13,7 15 8 20 11 E 1019,8 60 0,0
29.06.2020 16:00:00 18,5 13,8 13 7 18 10 E 1019,9 60 0,0
29.06.2020 15:00:00 18,2 13,5 15 8 20 11 ENE 1020,4 60 0,0
29.06.2020 14:00:00 18,6 13,9 15 8 19 10 E 1020,7 60 -
29.06.2020 13:00:00 18,6 13,9 13 7 18 10 E 1020,9 60 0,0
29.06.2020 12:00:00 17,6 13,9 12 7 16 9 ENE 1020,9 60 0,0
29.06.2020 11:00:00 16,5 13,3 10 5 19 10 NE 1021,0 41 0,0
29.06.2020 10:00:00 16,2 13,4 8 5 18 10 NNE 1020,9 5 0,0
29.06.2020 09:00:00 16,1 13,8 11 6 21 11 NE 1020,7 0 0,0
29.06.2020 08:00:00 15,7 13,9 10 5 17 9 NNE 1020,5 0 -
29.06.2020 07:00:00 15,7 13,8 10 6 15 8 ENE 1020,3 0 0,0
29.06.2020 06:00:00 15,7 13,9 6 3 15 8 NNE 1020,2 0 0,0
29.06.2020 05:00:00 16,0 14,0 10 6 15 8 NE 1020,2 0 0,0
29.06.2020 04:00:00 15,9 14,2 11 6 19 10 NE 1020,2 0 0,0
29.06.2020 03:00:00 15,6 15,6 11 6 19 10 NE 1020,3 0 0,0
29.06.2020 02:00:00 16,2 16,2 8 4 10 5 N 1020,7 0 -
29.06.2020 01:00:00 16,4 16,2 3 2 6 3 W 1020,8 0 0,0
29.06.2020 00:00:00 16,4 16,0 3 2 12 6 NW 1021,0 0 0,0
28.06.2020 23:00:00 16,6 16,3 10 5 17 9 WNW 1020,5 0 0,0
28.06.2020 22:00:00 16,5 16,3 14 7 16 9 WNW 1020,3 0 0,0
28.06.2020 21:00:00 16,4 16,4 11 6 18 10 W 1020,2 0 0,2
28.06.2020 20:00:00 16,2 16,2 13 7 28 15 W 1020,1 0 -
28.06.2020 19:00:00 15,9 15,9 19 11 25 13 WNW 1019,9 0 0,0
28.06.2020 18:00:00 15,9 15,9 21 11 32 18 WNW 1019,7 0 0,0
28.06.2020 17:00:00 16,7 16,7 30 16 44 24 WNW 1019,0 0 0,0
28.06.2020 16:00:00 17,7 17,7 38 20 50 27 W 1018,6 0 0,0
28.06.2020 15:00:00 18,2 18,2 43 23 48 26 W 1018,4 0 0,0
28.06.2020 14:00:00 18,3 18,3 25 13 42 23 W 1018,6 0 -
28.06.2020 13:00:00 18,9 17,9 38 20 45 24 W 1018,1 0 0,0
28.06.2020 12:00:00 18,8 17,5 40 22 51 28 WSW 1017,8 0 0,0
28.06.2020 11:00:00 18,8 17,1 41 22 51 27 W 1017,5 3 0,0
28.06.2020 10:00:00 18,3 17,0 41 22 46 25 W 1017,1 0 0,0
28.06.2020 09:00:00 17,8 16,5 38 21 49 26 WSW 1017,1 0 0,0
28.06.2020 08:00:00 17,6 15,6 28 15 45 25 W 1016,8 0 -
28.06.2020 07:00:00 17,9 14,6 32 17 42 23 WSW 1016,6 0 0,0
28.06.2020 06:00:00 16,7 14,7 22 12 29 16 W 1016,8 0 0,0
28.06.2020 05:00:00 16,4 14,6 28 15 35 19 W 1016,9 0 0,0
28.06.2020 04:00:00 16,3 14,3 21 11 33 18 W 1017,0 0 0,0
28.06.2020 03:00:00 16,5 14,5 24 13 34 18 W 1017,1 0 0,0
28.06.2020 02:00:00 16,5 13,9 27 14 35 19 W 1017,6 0 -
28.06.2020 01:00:00 16,6 14,2 23 12 28 15 W 1017,7 0 0,0
28.06.2020 00:00:00 16,8 14,6 23 12 37 20 W 1017,9 0 0,0
27.06.2020 23:00:00 17,2 15,0 34 18 45 24 W 1017,2 0 0,0
27.06.2020 22:00:00 17,3 14,9 38 21 46 25 W 1016,7 0 0,0
27.06.2020 21:00:00 17,5 15,0 39 21 46 25 W 1016,5 0 0,0
27.06.2020 20:00:00 17,8 15,3 39 21 46 25 W 1016,4 3 -
27.06.2020 19:00:00 18,2 14,3 40 22 51 28 W 1016,1 29 0,0
27.06.2020 18:00:00 18,0 15,4 40 21 47 26 W 1015,7 3 0,0
27.06.2020 17:00:00 17,4 15,7 32 18 40 21 W 1015,9 0 0,0
27.06.2020 16:00:00 17,1 14,7 40 22 53 29 W 1015,7 0 0,0
27.06.2020 15:00:00 17,2 15,3 43 23 51 27 W 1015,4 0 0,0
27.06.2020 14:00:00 16,5 16,5 44 24 52 28 W 1015,0 0 -
27.06.2020 13:00:00 15,8 15,8 41 22 48 26 W 1014,8 0 0,0
27.06.2020 12:00:00 16,8 16,8 29 16 42 23 W 1014,8 0 0,2
27.06.2020 11:00:00 16,7 16,7 35 19 52 28 W 1014,3 0 0,4
27.06.2020 10:00:00 17,4 17,4 37 20 48 26 W 1013,6 0 0,0
27.06.2020 09:00:00 17,6 16,6 42 23 53 28 W 1012,6 0 0,0
27.06.2020 08:00:00 18,3 15,9 42 23 59 32 WSW 1012,0 0 -
27.06.2020 07:00:00 18,3 15,5 44 24 57 31 W 1011,7 0 0,0
27.06.2020 06:00:00 17,9 15,5 49 26 68 37 W 1011,6 0 0,0
27.06.2020 05:00:00 18,2 15,1 46 25 59 32 W 1011,5 0 0,0
27.06.2020 04:00:00 18,3 15,0 47 26 62 34 W 1011,6 0 0,0
27.06.2020 03:00:00 18,5 15,0 50 27 63 34 W 1011,8 0 0,0
27.06.2020 02:00:00 18,4 15,3 53 29 66 35 W 1012,1 0 -
27.06.2020 01:00:00 18,5 15,5 51 28 66 35 W 1011,9 0 0,0
27.06.2020 00:00:00 18,4 15,6 45 25 57 31 W 1012,0 0 0,0
26.06.2020 23:00:00 18,3 15,5 45 25 51 27 W 1011,8 0 0,0
26.06.2020 22:00:00 18,1 15,7 39 21 56 30 W 1011,9 0 0,0
26.06.2020 21:00:00 19,3 15,2 43 23 58 32 WSW 1011,9 4 0,0
26.06.2020 20:00:00 20,0 15,4 34 19 55 30 WSW 1011,7 40 -
26.06.2020 19:00:00 20,8 16,0 44 24 59 32 WSW 1011,8 6 0,0
26.06.2020 18:00:00 19,3 15,5 37 20 48 26 W 1012,2 0 0,0
26.06.2020 17:00:00 20,2 15,2 24 13 32 17 W 1012,2 0 0,0
26.06.2020 16:00:00 18,2 14,5 16 9 27 15 ESE 1012,8 4 0,0
26.06.2020 15:00:00 18,3 14,4 22 12 34 18 ESE 1012,8 18 0,0
26.06.2020 14:00:00 21,3 14,4 27 15 33 18 W 1012,8 54 -
26.06.2020 13:00:00 20,7 14,8 21 11 36 19 W 1013,2 59 0,0
26.06.2020 12:00:00 19,2 13,9 32 17 41 22 W 1013,3 60 0,0
26.06.2020 11:00:00 18,1 13,2 36 19 43 23 W 1013,4 59 0,0
26.06.2020 10:00:00 16,8 12,5 34 18 42 23 WSW 1013,5 55 0,0
26.06.2020 09:00:00 16,1 13,4 18 10 27 14 WSW 1013,9 0 0,0
26.06.2020 08:00:00 16,0 13,0 20 11 25 13 WSW 1014,3 0 -
26.06.2020 07:00:00 15,8 12,7 17 9 26 14 WSW 1014,4 0 0,0

tt = temperature
td = dewpoint
ff = wind speed
fx = gusts
dd = wind direction
ppp = reduced air pressure
sd = sunshine duration
rr = precipitation

Next stations